sensor_id;sensor_type;location;lat;lon;timestamp;P1;durP1;ratioP1;P2;durP2;ratioP2
17648;SDS011;8943;51.110;-4.158;2023-05-10T00:01:51;38.40;;;7.20;;
17648;SDS011;8943;51.110;-4.158;2023-05-10T00:04:19;33.57;;;5.60;;
17648;SDS011;8943;51.110;-4.158;2023-05-10T00:06:48;36.80;;;5.93;;
17648;SDS011;8943;51.110;-4.158;2023-05-10T00:09:16;43.37;;;7.33;;
17648;SDS011;8943;51.110;-4.158;2023-05-10T00:11:45;32.13;;;6.40;;
17648;SDS011;8943;51.110;-4.158;2023-05-10T00:14:13;35.37;;;5.23;;
17648;SDS011;8943;51.110;-4.158;2023-05-10T00:16:42;31.13;;;5.87;;
17648;SDS011;8943;51.110;-4.158;2023-05-10T00:19:10;25.67;;;4.43;;
17648;SDS011;8943;51.110;-4.158;2023-05-10T00:21:38;37.90;;;6.03;;
17648;SDS011;8943;51.110;-4.158;2023-05-10T00:24:06;34.77;;;5.07;;
17648;SDS011;8943;51.110;-4.158;2023-05-10T00:26:35;36.37;;;6.17;;
17648;SDS011;8943;51.110;-4.158;2023-05-10T00:29:03;33.67;;;5.73;;
17648;SDS011;8943;51.110;-4.158;2023-05-10T00:31:31;31.77;;;5.43;;
17648;SDS011;8943;51.110;-4.158;2023-05-10T00:34:00;32.60;;;6.40;;
17648;SDS011;8943;51.110;-4.158;2023-05-10T00:36:29;36.43;;;5.87;;
17648;SDS011;8943;51.110;-4.158;2023-05-10T00:38:57;32.67;;;5.50;;
17648;SDS011;8943;51.110;-4.158;2023-05-10T00:41:26;40.07;;;6.17;;
17648;SDS011;8943;51.110;-4.158;2023-05-10T00:43:54;38.47;;;6.70;;
17648;SDS011;8943;51.110;-4.158;2023-05-10T00:46:22;28.57;;;5.97;;
17648;SDS011;8943;51.110;-4.158;2023-05-10T00:48:51;33.00;;;5.83;;
17648;SDS011;8943;51.110;-4.158;2023-05-10T00:51:21;41.53;;;6.43;;
17648;SDS011;8943;51.110;-4.158;2023-05-10T00:53:49;38.50;;;5.83;;
17648;SDS011;8943;51.110;-4.158;2023-05-10T00:56:18;31.50;;;5.80;;
17648;SDS011;8943;51.110;-4.158;2023-05-10T00:58:49;46.30;;;7.10;;
17648;SDS011;8943;51.110;-4.158;2023-05-10T01:01:17;35.70;;;5.77;;
17648;SDS011;8943;51.110;-4.158;2023-05-10T01:03:47;37.37;;;6.03;;
17648;SDS011;8943;51.110;-4.158;2023-05-10T01:06:16;30.80;;;5.20;;
17648;SDS011;8943;51.110;-4.158;2023-05-10T01:08:45;40.67;;;6.07;;
17648;SDS011;8943;51.110;-4.158;2023-05-10T01:11:14;46.77;;;7.20;;
17648;SDS011;8943;51.110;-4.158;2023-05-10T01:13:43;35.93;;;5.77;;
17648;SDS011;8943;51.110;-4.158;2023-05-10T01:16:20;33.67;;;5.67;;
17648;SDS011;8943;51.110;-4.158;2023-05-10T01:18:48;34.60;;;5.87;;
17648;SDS011;8943;51.110;-4.158;2023-05-10T01:21:19;35.27;;;5.50;;
17648;SDS011;8943;51.110;-4.158;2023-05-10T01:24:04;36.03;;;6.03;;
17648;SDS011;8943;51.110;-4.158;2023-05-10T01:26:50;40.27;;;6.17;;
17648;SDS011;8943;51.110;-4.158;2023-05-10T01:29:47;30.30;;;5.73;;
17648;SDS011;8943;51.110;-4.158;2023-05-10T01:32:44;29.77;;;5.20;;
17648;SDS011;8943;51.110;-4.158;2023-05-10T01:35:22;32.67;;;5.10;;
17648;SDS011;8943;51.110;-4.158;2023-05-10T01:37:58;31.80;;;5.50;;
17648;SDS011;8943;51.110;-4.158;2023-05-10T01:40:32;37.23;;;5.57;;
17648;SDS011;8943;51.110;-4.158;2023-05-10T01:43:07;38.80;;;5.17;;
17648;SDS011;8943;51.110;-4.158;2023-05-10T01:45:46;23.27;;;5.30;;
17648;SDS011;8943;51.110;-4.158;2023-05-10T01:48:38;31.83;;;5.97;;
17648;SDS011;8943;51.110;-4.158;2023-05-10T01:51:13;35.93;;;5.60;;
17648;SDS011;8943;51.110;-4.158;2023-05-10T01:53:48;40.03;;;5.93;;
17648;SDS011;8943;51.110;-4.158;2023-05-10T01:56:59;33.67;;;5.93;;
17648;SDS011;8943;51.110;-4.158;2023-05-10T01:59:34;31.43;;;6.17;;
17648;SDS011;8943;51.110;-4.158;2023-05-10T02:02:09;37.90;;;5.47;;
17648;SDS011;8943;51.110;-4.158;2023-05-10T02:04:41;36.57;;;6.13;;
17648;SDS011;8943;51.110;-4.158;2023-05-10T02:07:11;34.10;;;6.47;;
17648;SDS011;8943;51.110;-4.158;2023-05-10T02:09:42;36.83;;;5.50;;
17648;SDS011;8943;51.110;-4.158;2023-05-10T02:12:14;36.07;;;5.03;;
17648;SDS011;8943;51.110;-4.158;2023-05-10T02:14:44;32.60;;;6.33;;
17648;SDS011;8943;51.110;-4.158;2023-05-10T02:17:13;34.13;;;5.53;;
17648;SDS011;8943;51.110;-4.158;2023-05-10T02:19:44;35.73;;;5.73;;
17648;SDS011;8943;51.110;-4.158;2023-05-10T02:22:15;25.77;;;4.53;;
17648;SDS011;8943;51.110;-4.158;2023-05-10T02:24:45;32.83;;;5.87;;
17648;SDS011;8943;51.110;-4.158;2023-05-10T02:27:19;36.70;;;6.20;;
17648;SDS011;8943;51.110;-4.158;2023-05-10T02:29:48;26.13;;;4.83;;
17648;SDS011;8943;51.110;-4.158;2023-05-10T02:32:19;32.37;;;5.60;;
17648;SDS011;8943;51.110;-4.158;2023-05-10T02:34:51;24.83;;;5.43;;
17648;SDS011;8943;51.110;-4.158;2023-05-10T02:37:20;43.70;;;5.53;;
17648;SDS011;8943;51.110;-4.158;2023-05-10T02:39:50;26.63;;;6.23;;
17648;SDS011;8943;51.110;-4.158;2023-05-10T02:42:20;31.37;;;5.27;;
17648;SDS011;8943;51.110;-4.158;2023-05-10T02:44:53;28.20;;;5.77;;
17648;SDS011;8943;51.110;-4.158;2023-05-10T02:47:24;28.73;;;4.77;;
17648;SDS011;8943;51.110;-4.158;2023-05-10T02:49:53;33.83;;;6.43;;
17648;SDS011;8943;51.110;-4.158;2023-05-10T02:52:23;28.93;;;4.40;;
17648;SDS011;8943;51.110;-4.158;2023-05-10T02:54:54;30.30;;;4.50;;
17648;SDS011;8943;51.110;-4.158;2023-05-10T02:57:26;34.93;;;5.37;;
17648;SDS011;8943;51.110;-4.158;2023-05-10T02:59:59;18.93;;;4.07;;
17648;SDS011;8943;51.110;-4.158;2023-05-10T03:02:29;19.83;;;4.10;;
17648;SDS011;8943;51.110;-4.158;2023-05-10T03:04:59;26.97;;;4.30;;
17648;SDS011;8943;51.110;-4.158;2023-05-10T03:07:27;33.40;;;5.73;;
17648;SDS011;8943;51.110;-4.158;2023-05-10T03:09:55;38.97;;;6.60;;
17648;SDS011;8943;51.110;-4.158;2023-05-10T03:12:25;38.23;;;6.00;;
17648;SDS011;8943;51.110;-4.158;2023-05-10T03:15:00;25.87;;;4.67;;
17648;SDS011;8943;51.110;-4.158;2023-05-10T03:17:39;25.73;;;5.80;;
17648;SDS011;8943;51.110;-4.158;2023-05-10T03:20:21;32.70;;;3.87;;
17648;SDS011;8943;51.110;-4.158;2023-05-10T03:22:53;32.70;;;5.30;;
17648;SDS011;8943;51.110;-4.158;2023-05-10T03:25:25;32.80;;;5.93;;
17648;SDS011;8943;51.110;-4.158;2023-05-10T03:27:54;27.50;;;4.73;;
17648;SDS011;8943;51.110;-4.158;2023-05-10T03:30:25;32.57;;;4.70;;
17648;SDS011;8943;51.110;-4.158;2023-05-10T03:32:53;19.10;;;3.33;;
17648;SDS011;8943;51.110;-4.158;2023-05-10T03:35:23;23.70;;;4.37;;
17648;SDS011;8943;51.110;-4.158;2023-05-10T03:37:51;31.80;;;4.80;;
17648;SDS011;8943;51.110;-4.158;2023-05-10T03:40:20;24.80;;;4.30;;
17648;SDS011;8943;51.110;-4.158;2023-05-10T03:42:49;25.60;;;4.33;;
17648;SDS011;8943;51.110;-4.158;2023-05-10T03:45:17;26.43;;;4.40;;
17648;SDS011;8943;51.110;-4.158;2023-05-10T03:47:46;20.77;;;3.20;;
17648;SDS011;8943;51.110;-4.158;2023-05-10T03:50:14;21.90;;;5.13;;
17648;SDS011;8943;51.110;-4.158;2023-05-10T03:52:44;33.53;;;5.27;;
17648;SDS011;8943;51.110;-4.158;2023-05-10T03:55:12;22.97;;;4.27;;
17648;SDS011;8943;51.110;-4.158;2023-05-10T03:57:40;22.67;;;4.83;;
17648;SDS011;8943;51.110;-4.158;2023-05-10T04:00:09;28.57;;;4.87;;
17648;SDS011;8943;51.110;-4.158;2023-05-10T04:02:38;20.57;;;4.23;;
17648;SDS011;8943;51.110;-4.158;2023-05-10T04:05:07;21.63;;;4.30;;
17648;SDS011;8943;51.110;-4.158;2023-05-10T04:07:35;27.50;;;5.60;;
17648;SDS011;8943;51.110;-4.158;2023-05-10T04:10:05;26.90;;;4.57;;
17648;SDS011;8943;51.110;-4.158;2023-05-10T04:12:34;29.07;;;4.30;;
17648;SDS011;8943;51.110;-4.158;2023-05-10T04:15:02;29.67;;;5.30;;
17648;SDS011;8943;51.110;-4.158;2023-05-10T04:17:30;18.47;;;3.80;;
17648;SDS011;8943;51.110;-4.158;2023-05-10T04:19:59;23.00;;;3.53;;
17648;SDS011;8943;51.110;-4.158;2023-05-10T04:22:27;24.23;;;4.37;;
17648;SDS011;8943;51.110;-4.158;2023-05-10T04:24:55;26.57;;;4.83;;
17648;SDS011;8943;51.110;-4.158;2023-05-10T04:27:25;27.37;;;4.90;;
17648;SDS011;8943;51.110;-4.158;2023-05-10T04:29:53;20.33;;;4.30;;
17648;SDS011;8943;51.110;-4.158;2023-05-10T04:32:21;25.10;;;4.40;;
17648;SDS011;8943;51.110;-4.158;2023-05-10T04:34:51;28.80;;;4.93;;
17648;SDS011;8943;51.110;-4.158;2023-05-10T04:37:19;25.40;;;5.40;;
17648;SDS011;8943;51.110;-4.158;2023-05-10T04:39:47;35.40;;;5.10;;
17648;SDS011;8943;51.110;-4.158;2023-05-10T04:42:17;32.13;;;4.83;;
17648;SDS011;8943;51.110;-4.158;2023-05-10T04:44:46;29.77;;;4.87;;
17648;SDS011;8943;51.110;-4.158;2023-05-10T04:47:15;37.27;;;5.53;;
17648;SDS011;8943;51.110;-4.158;2023-05-10T04:49:46;34.40;;;4.90;;
17648;SDS011;8943;51.110;-4.158;2023-05-10T04:52:14;26.50;;;5.23;;
17648;SDS011;8943;51.110;-4.158;2023-05-10T04:54:43;38.50;;;5.80;;
17648;SDS011;8943;51.110;-4.158;2023-05-10T04:57:12;34.77;;;5.27;;
17648;SDS011;8943;51.110;-4.158;2023-05-10T04:59:41;33.87;;;5.43;;
17648;SDS011;8943;51.110;-4.158;2023-05-10T05:02:11;25.17;;;4.53;;
17648;SDS011;8943;51.110;-4.158;2023-05-10T05:04:40;31.27;;;5.17;;
17648;SDS011;8943;51.110;-4.158;2023-05-10T05:07:08;21.80;;;4.67;;
17648;SDS011;8943;51.110;-4.158;2023-05-10T05:09:39;32.00;;;5.10;;
17648;SDS011;8943;51.110;-4.158;2023-05-10T05:12:10;25.13;;;4.93;;
17648;SDS011;8943;51.110;-4.158;2023-05-10T05:14:43;17.50;;;3.93;;
17648;SDS011;8943;51.110;-4.158;2023-05-10T05:17:13;24.50;;;4.57;;
17648;SDS011;8943;51.110;-4.158;2023-05-10T05:19:41;27.40;;;5.20;;
17648;SDS011;8943;51.110;-4.158;2023-05-10T05:22:10;20.73;;;4.17;;
17648;SDS011;8943;51.110;-4.158;2023-05-10T05:24:38;28.73;;;5.03;;
17648;SDS011;8943;51.110;-4.158;2023-05-10T05:27:06;36.20;;;6.30;;
17648;SDS011;8943;51.110;-4.158;2023-05-10T05:29:36;40.60;;;6.30;;
17648;SDS011;8943;51.110;-4.158;2023-05-10T05:32:04;23.67;;;4.47;;
17648;SDS011;8943;51.110;-4.158;2023-05-10T05:34:36;25.57;;;4.33;;
17648;SDS011;8943;51.110;-4.158;2023-05-10T05:37:04;24.57;;;4.47;;
17648;SDS011;8943;51.110;-4.158;2023-05-10T05:39:32;11.43;;;3.97;;
17648;SDS011;8943;51.110;-4.158;2023-05-10T05:42:00;16.30;;;3.40;;
17648;SDS011;8943;51.110;-4.158;2023-05-10T05:44:29;24.37;;;4.20;;
17648;SDS011;8943;51.110;-4.158;2023-05-10T05:46:57;32.63;;;5.23;;
17648;SDS011;8943;51.110;-4.158;2023-05-10T05:49:26;33.23;;;5.17;;
17648;SDS011;8943;51.110;-4.158;2023-05-10T05:52:00;24.23;;;4.30;;
17648;SDS011;8943;51.110;-4.158;2023-05-10T05:54:33;29.90;;;4.53;;
17648;SDS011;8943;51.110;-4.158;2023-05-10T05:57:02;22.27;;;4.70;;
17648;SDS011;8943;51.110;-4.158;2023-05-10T05:59:30;17.37;;;3.60;;
17648;SDS011;8943;51.110;-4.158;2023-05-10T06:02:00;31.40;;;4.70;;
17648;SDS011;8943;51.110;-4.158;2023-05-10T06:04:28;26.80;;;5.33;;
17648;SDS011;8943;51.110;-4.158;2023-05-10T06:06:56;28.93;;;5.10;;
17648;SDS011;8943;51.110;-4.158;2023-05-10T06:09:26;25.17;;;5.13;;
17648;SDS011;8943;51.110;-4.158;2023-05-10T06:11:54;27.20;;;5.07;;
17648;SDS011;8943;51.110;-4.158;2023-05-10T06:14:22;30.10;;;5.33;;
17648;SDS011;8943;51.110;-4.158;2023-05-10T06:16:51;42.30;;;5.37;;
17648;SDS011;8943;51.110;-4.158;2023-05-10T06:19:19;30.97;;;5.30;;
17648;SDS011;8943;51.110;-4.158;2023-05-10T06:21:47;35.53;;;5.73;;
17648;SDS011;8943;51.110;-4.158;2023-05-10T06:24:19;31.37;;;6.27;;
17648;SDS011;8943;51.110;-4.158;2023-05-10T06:26:49;26.67;;;5.40;;
17648;SDS011;8943;51.110;-4.158;2023-05-10T06:29:17;21.93;;;4.40;;
17648;SDS011;8943;51.110;-4.158;2023-05-10T06:31:45;30.37;;;5.37;;
17648;SDS011;8943;51.110;-4.158;2023-05-10T06:34:14;33.47;;;4.70;;
17648;SDS011;8943;51.110;-4.158;2023-05-10T06:36:42;28.87;;;3.77;;
17648;SDS011;8943;51.110;-4.158;2023-05-10T06:39:11;32.07;;;4.73;;
17648;SDS011;8943;51.110;-4.158;2023-05-10T06:41:39;27.00;;;5.30;;
17648;SDS011;8943;51.110;-4.158;2023-05-10T06:44:09;21.67;;;3.97;;
17648;SDS011;8943;51.110;-4.158;2023-05-10T06:47:09;30.00;;;4.47;;
17648;SDS011;8943;51.110;-4.158;2023-05-10T06:49:40;24.57;;;4.57;;
17648;SDS011;8943;51.110;-4.158;2023-05-10T06:52:08;29.43;;;4.20;;
17648;SDS011;8943;51.110;-4.158;2023-05-10T06:54:37;16.47;;;3.30;;
17648;SDS011;8943;51.110;-4.158;2023-05-10T06:57:06;19.13;;;3.00;;
17648;SDS011;8943;51.110;-4.158;2023-05-10T07:02:25;18.90;;;4.87;;
17648;SDS011;8943;51.110;-4.158;2023-05-10T07:04:54;17.80;;;3.80;;
17648;SDS011;8943;51.110;-4.158;2023-05-10T07:07:26;16.70;;;3.50;;
17648;SDS011;8943;51.110;-4.158;2023-05-10T07:09:57;23.77;;;4.13;;
17648;SDS011;8943;51.110;-4.158;2023-05-10T07:12:29;18.80;;;3.53;;
17648;SDS011;8943;51.110;-4.158;2023-05-10T07:14:58;15.00;;;3.20;;
17648;SDS011;8943;51.110;-4.158;2023-05-10T07:17:29;24.90;;;4.20;;
17648;SDS011;8943;51.110;-4.158;2023-05-10T07:20:11;15.70;;;3.27;;
17648;SDS011;8943;51.110;-4.158;2023-05-10T07:22:42;14.47;;;2.37;;
17648;SDS011;8943;51.110;-4.158;2023-05-10T07:25:10;22.07;;;3.90;;
17648;SDS011;8943;51.110;-4.158;2023-05-10T07:27:44;14.50;;;2.63;;
17648;SDS011;8943;51.110;-4.158;2023-05-10T07:30:15;30.63;;;4.23;;
17648;SDS011;8943;51.110;-4.158;2023-05-10T07:32:45;15.43;;;3.17;;
17648;SDS011;8943;51.110;-4.158;2023-05-10T07:35:14;13.73;;;3.03;;
17648;SDS011;8943;51.110;-4.158;2023-05-10T07:37:42;19.33;;;3.90;;
17648;SDS011;8943;51.110;-4.158;2023-05-10T07:40:10;17.90;;;4.40;;
17648;SDS011;8943;51.110;-4.158;2023-05-10T07:42:39;22.90;;;3.67;;
17648;SDS011;8943;51.110;-4.158;2023-05-10T07:45:07;20.07;;;3.30;;
17648;SDS011;8943;51.110;-4.158;2023-05-10T07:47:39;24.77;;;3.07;;
17648;SDS011;8943;51.110;-4.158;2023-05-10T07:52:55;16.90;;;3.33;;
17648;SDS011;8943;51.110;-4.158;2023-05-10T07:55:24;22.47;;;3.67;;
17648;SDS011;8943;51.110;-4.158;2023-05-10T07:57:52;20.47;;;3.43;;
17648;SDS011;8943;51.110;-4.158;2023-05-10T08:00:20;17.73;;;3.43;;
17648;SDS011;8943;51.110;-4.158;2023-05-10T08:02:49;31.23;;;3.73;;
17648;SDS011;8943;51.110;-4.158;2023-05-10T08:05:17;11.43;;;2.77;;
17648;SDS011;8943;51.110;-4.158;2023-05-10T08:07:47;10.73;;;3.07;;
17648;SDS011;8943;51.110;-4.158;2023-05-10T08:10:15;20.60;;;3.90;;
17648;SDS011;8943;51.110;-4.158;2023-05-10T08:12:44;20.10;;;3.80;;
17648;SDS011;8943;51.110;-4.158;2023-05-10T08:15:14;13.40;;;3.23;;
17648;SDS011;8943;51.110;-4.158;2023-05-10T08:17:43;13.60;;;2.53;;
17648;SDS011;8943;51.110;-4.158;2023-05-10T08:20:12;21.10;;;3.30;;
17648;SDS011;8943;51.110;-4.158;2023-05-10T08:22:56;21.30;;;3.07;;
17648;SDS011;8943;51.110;-4.158;2023-05-10T08:25:26;17.30;;;3.33;;
17648;SDS011;8943;51.110;-4.158;2023-05-10T08:27:54;18.37;;;3.47;;
17648;SDS011;8943;51.110;-4.158;2023-05-10T08:30:22;12.70;;;1.80;;
17648;SDS011;8943;51.110;-4.158;2023-05-10T08:32:51;16.83;;;3.20;;
17648;SDS011;8943;51.110;-4.158;2023-05-10T08:35:20;23.57;;;3.53;;
17648;SDS011;8943;51.110;-4.158;2023-05-10T08:37:48;16.70;;;3.67;;
17648;SDS011;8943;51.110;-4.158;2023-05-10T08:40:18;14.80;;;2.67;;
17648;SDS011;8943;51.110;-4.158;2023-05-10T08:42:48;17.13;;;2.93;;
17648;SDS011;8943;51.110;-4.158;2023-05-10T08:45:23;10.57;;;2.50;;
17648;SDS011;8943;51.110;-4.158;2023-05-10T08:47:52;14.10;;;2.40;;
17648;SDS011;8943;51.110;-4.158;2023-05-10T08:50:26;10.63;;;2.03;;
17648;SDS011;8943;51.110;-4.158;2023-05-10T08:52:55;15.03;;;3.10;;
17648;SDS011;8943;51.110;-4.158;2023-05-10T08:55:29;18.53;;;3.37;;
17648;SDS011;8943;51.110;-4.158;2023-05-10T08:58:00;14.73;;;2.57;;
17648;SDS011;8943;51.110;-4.158;2023-05-10T09:00:29;18.63;;;3.57;;
17648;SDS011;8943;51.110;-4.158;2023-05-10T09:02:59;17.03;;;3.50;;
17648;SDS011;8943;51.110;-4.158;2023-05-10T09:05:30;18.87;;;3.80;;
17648;SDS011;8943;51.110;-4.158;2023-05-10T09:07:59;13.13;;;2.37;;
17648;SDS011;8943;51.110;-4.158;2023-05-10T09:10:29;8.13;;;2.30;;
17648;SDS011;8943;51.110;-4.158;2023-05-10T09:12:58;10.77;;;2.10;;
17648;SDS011;8943;51.110;-4.158;2023-05-10T09:15:26;11.33;;;1.90;;
17648;SDS011;8943;51.110;-4.158;2023-05-10T09:17:55;13.10;;;2.67;;
17648;SDS011;8943;51.110;-4.158;2023-05-10T09:20:24;6.97;;;1.67;;
17648;SDS011;8943;51.110;-4.158;2023-05-10T09:22:52;16.47;;;2.50;;
17648;SDS011;8943;51.110;-4.158;2023-05-10T09:25:20;11.27;;;1.77;;
17648;SDS011;8943;51.110;-4.158;2023-05-10T09:27:53;11.60;;;2.33;;
17648;SDS011;8943;51.110;-4.158;2023-05-10T09:30:24;17.00;;;3.13;;
17648;SDS011;8943;51.110;-4.158;2023-05-10T09:32:53;15.37;;;3.40;;
17648;SDS011;8943;51.110;-4.158;2023-05-10T09:35:27;12.97;;;2.43;;
17648;SDS011;8943;51.110;-4.158;2023-05-10T09:37:57;8.03;;;2.77;;
17648;SDS011;8943;51.110;-4.158;2023-05-10T09:40:28;10.67;;;1.93;;
17648;SDS011;8943;51.110;-4.158;2023-05-10T09:42:59;11.57;;;2.70;;
17648;SDS011;8943;51.110;-4.158;2023-05-10T09:45:28;11.00;;;2.23;;
17648;SDS011;8943;51.110;-4.158;2023-05-10T09:47:58;12.17;;;2.00;;
17648;SDS011;8943;51.110;-4.158;2023-05-10T09:50:27;14.60;;;2.90;;
17648;SDS011;8943;51.110;-4.158;2023-05-10T09:52:56;17.40;;;3.37;;
17648;SDS011;8943;51.110;-4.158;2023-05-10T09:55:38;18.20;;;3.30;;
17648;SDS011;8943;51.110;-4.158;2023-05-10T09:58:08;10.07;;;2.47;;
17648;SDS011;8943;51.110;-4.158;2023-05-10T10:00:37;6.33;;;1.60;;
17648;SDS011;8943;51.110;-4.158;2023-05-10T10:03:11;10.03;;;2.40;;
17648;SDS011;8943;51.110;-4.158;2023-05-10T10:05:41;21.00;;;3.93;;
17648;SDS011;8943;51.110;-4.158;2023-05-10T10:08:11;12.77;;;2.40;;
17648;SDS011;8943;51.110;-4.158;2023-05-10T10:10:40;13.07;;;2.57;;
17648;SDS011;8943;51.110;-4.158;2023-05-10T10:13:13;16.20;;;2.93;;
17648;SDS011;8943;51.110;-4.158;2023-05-10T10:15:43;13.70;;;2.30;;
17648;SDS011;8943;51.110;-4.158;2023-05-10T10:18:13;13.33;;;3.03;;
17648;SDS011;8943;51.110;-4.158;2023-05-10T10:20:42;12.63;;;2.17;;
17648;SDS011;8943;51.110;-4.158;2023-05-10T10:23:10;16.13;;;3.67;;
17648;SDS011;8943;51.110;-4.158;2023-05-10T10:25:41;17.33;;;2.60;;
17648;SDS011;8943;51.110;-4.158;2023-05-10T10:28:16;17.27;;;3.40;;
17648;SDS011;8943;51.110;-4.158;2023-05-10T10:30:53;12.23;;;2.07;;
17648;SDS011;8943;51.110;-4.158;2023-05-10T10:36:14;10.77;;;2.77;;
17648;SDS011;8943;51.110;-4.158;2023-05-10T10:38:59;9.23;;;2.40;;
17648;SDS011;8943;51.110;-4.158;2023-05-10T10:41:30;16.73;;;3.10;;
17648;SDS011;8943;51.110;-4.158;2023-05-10T10:47:03;9.87;;;2.30;;
17648;SDS011;8943;51.110;-4.158;2023-05-10T10:49:38;9.77;;;2.97;;
17648;SDS011;8943;51.110;-4.158;2023-05-10T10:52:23;17.07;;;3.40;;
17648;SDS011;8943;51.110;-4.158;2023-05-10T10:55:00;15.80;;;2.80;;
17648;SDS011;8943;51.110;-4.158;2023-05-10T10:57:33;15.10;;;2.60;;
17648;SDS011;8943;51.110;-4.158;2023-05-10T11:00:25;5.27;;;1.60;;
17648;SDS011;8943;51.110;-4.158;2023-05-10T11:02:56;5.97;;;1.10;;
17648;SDS011;8943;51.110;-4.158;2023-05-10T11:08:10;10.43;;;1.93;;
17648;SDS011;8943;51.110;-4.158;2023-05-10T11:10:49;7.37;;;1.80;;
17648;SDS011;8943;51.110;-4.158;2023-05-10T11:13:26;13.23;;;2.00;;
17648;SDS011;8943;51.110;-4.158;2023-05-10T11:15:58;10.17;;;2.43;;
17648;SDS011;8943;51.110;-4.158;2023-05-10T11:18:37;10.10;;;1.80;;
17648;SDS011;8943;51.110;-4.158;2023-05-10T11:21:07;11.87;;;2.17;;
17648;SDS011;8943;51.110;-4.158;2023-05-10T11:23:50;5.80;;;1.10;;
17648;SDS011;8943;51.110;-4.158;2023-05-10T11:26:22;8.97;;;1.80;;
17648;SDS011;8943;51.110;-4.158;2023-05-10T11:28:53;10.50;;;2.43;;
17648;SDS011;8943;51.110;-4.158;2023-05-10T11:31:27;9.23;;;1.90;;
17648;SDS011;8943;51.110;-4.158;2023-05-10T11:33:56;8.10;;;1.63;;
17648;SDS011;8943;51.110;-4.158;2023-05-10T11:36:26;8.77;;;1.30;;
17648;SDS011;8943;51.110;-4.158;2023-05-10T11:38:55;14.93;;;2.67;;
17648;SDS011;8943;51.110;-4.158;2023-05-10T11:41:30;12.93;;;2.17;;
17648;SDS011;8943;51.110;-4.158;2023-05-10T11:43:59;13.17;;;3.27;;
17648;SDS011;8943;51.110;-4.158;2023-05-10T11:46:29;15.73;;;2.40;;
17648;SDS011;8943;51.110;-4.158;2023-05-10T11:48:58;9.40;;;2.17;;
17648;SDS011;8943;51.110;-4.158;2023-05-10T11:51:32;9.83;;;2.57;;
17648;SDS011;8943;51.110;-4.158;2023-05-10T11:54:05;11.73;;;2.50;;
17648;SDS011;8943;51.110;-4.158;2023-05-10T11:56:35;11.03;;;2.53;;
17648;SDS011;8943;51.110;-4.158;2023-05-10T11:59:04;11.77;;;2.33;;
17648;SDS011;8943;51.110;-4.158;2023-05-10T12:01:34;11.17;;;2.10;;
17648;SDS011;8943;51.110;-4.158;2023-05-10T12:04:02;9.10;;;1.57;;
17648;SDS011;8943;51.110;-4.158;2023-05-10T12:06:31;8.40;;;2.10;;
17648;SDS011;8943;51.110;-4.158;2023-05-10T12:09:05;10.77;;;2.23;;
17648;SDS011;8943;51.110;-4.158;2023-05-10T12:11:36;4.70;;;1.80;;
17648;SDS011;8943;51.110;-4.158;2023-05-10T12:14:09;6.93;;;1.80;;
17648;SDS011;8943;51.110;-4.158;2023-05-10T12:16:38;7.17;;;1.50;;
17648;SDS011;8943;51.110;-4.158;2023-05-10T12:19:07;9.40;;;1.73;;
17648;SDS011;8943;51.110;-4.158;2023-05-10T12:21:35;12.87;;;2.73;;
17648;SDS011;8943;51.110;-4.158;2023-05-10T12:24:05;11.40;;;2.17;;
17648;SDS011;8943;51.110;-4.158;2023-05-10T12:26:33;5.20;;;1.27;;
17648;SDS011;8943;51.110;-4.158;2023-05-10T12:29:12;7.90;;;1.73;;
17648;SDS011;8943;51.110;-4.158;2023-05-10T12:31:50;8.23;;;2.07;;
17648;SDS011;8943;51.110;-4.158;2023-05-10T12:34:22;10.63;;;2.67;;
17648;SDS011;8943;51.110;-4.158;2023-05-10T12:36:52;11.50;;;2.37;;
17648;SDS011;8943;51.110;-4.158;2023-05-10T12:39:20;14.73;;;1.97;;
17648;SDS011;8943;51.110;-4.158;2023-05-10T12:41:48;9.43;;;2.07;;
17648;SDS011;8943;51.110;-4.158;2023-05-10T12:44:16;12.20;;;2.00;;
17648;SDS011;8943;51.110;-4.158;2023-05-10T12:46:44;16.27;;;2.50;;
17648;SDS011;8943;51.110;-4.158;2023-05-10T12:49:14;9.93;;;1.93;;
17648;SDS011;8943;51.110;-4.158;2023-05-10T12:51:43;9.27;;;2.13;;
17648;SDS011;8943;51.110;-4.158;2023-05-10T12:54:11;17.33;;;2.37;;
17648;SDS011;8943;51.110;-4.158;2023-05-10T12:56:38;9.57;;;1.73;;
17648;SDS011;8943;51.110;-4.158;2023-05-10T12:59:07;7.47;;;1.77;;
17648;SDS011;8943;51.110;-4.158;2023-05-10T13:01:35;6.73;;;1.10;;
17648;SDS011;8943;51.110;-4.158;2023-05-10T13:04:03;9.63;;;1.93;;
17648;SDS011;8943;51.110;-4.158;2023-05-10T13:06:33;11.07;;;1.97;;
17648;SDS011;8943;51.110;-4.158;2023-05-10T13:09:01;8.77;;;1.60;;
17648;SDS011;8943;51.110;-4.158;2023-05-10T13:11:29;8.97;;;1.43;;
17648;SDS011;8943;51.110;-4.158;2023-05-10T13:13:57;9.20;;;2.30;;
17648;SDS011;8943;51.110;-4.158;2023-05-10T13:16:26;7.10;;;1.97;;
17648;SDS011;8943;51.110;-4.158;2023-05-10T13:18:54;11.23;;;2.10;;
17648;SDS011;8943;51.110;-4.158;2023-05-10T13:21:22;8.10;;;1.83;;
17648;SDS011;8943;51.110;-4.158;2023-05-10T13:23:53;7.17;;;1.17;;
17648;SDS011;8943;51.110;-4.158;2023-05-10T13:26:20;7.97;;;2.13;;
17648;SDS011;8943;51.110;-4.158;2023-05-10T13:28:49;8.80;;;1.60;;
17648;SDS011;8943;51.110;-4.158;2023-05-10T13:31:18;7.33;;;2.10;;
17648;SDS011;8943;51.110;-4.158;2023-05-10T13:33:47;10.43;;;1.70;;
17648;SDS011;8943;51.110;-4.158;2023-05-10T13:36:15;2.13;;;1.00;;
17648;SDS011;8943;51.110;-4.158;2023-05-10T13:38:43;4.30;;;0.97;;
17648;SDS011;8943;51.110;-4.158;2023-05-10T13:41:12;13.90;;;2.70;;
17648;SDS011;8943;51.110;-4.158;2023-05-10T13:43:40;10.50;;;1.90;;
17648;SDS011;8943;51.110;-4.158;2023-05-10T13:46:08;6.07;;;1.20;;
17648;SDS011;8943;51.110;-4.158;2023-05-10T13:48:36;9.93;;;1.90;;
17648;SDS011;8943;51.110;-4.158;2023-05-10T13:51:04;8.53;;;1.90;;
17648;SDS011;8943;51.110;-4.158;2023-05-10T13:53:32;4.97;;;1.50;;
17648;SDS011;8943;51.110;-4.158;2023-05-10T13:56:00;11.60;;;2.43;;
17648;SDS011;8943;51.110;-4.158;2023-05-10T13:58:31;14.37;;;2.50;;
17648;SDS011;8943;51.110;-4.158;2023-05-10T14:00:59;11.93;;;2.80;;
17648;SDS011;8943;51.110;-4.158;2023-05-10T14:03:27;14.57;;;2.30;;
17648;SDS011;8943;51.110;-4.158;2023-05-10T14:05:55;12.00;;;2.60;;
17648;SDS011;8943;51.110;-4.158;2023-05-10T14:08:23;13.17;;;2.20;;
17648;SDS011;8943;51.110;-4.158;2023-05-10T14:10:53;10.80;;;3.13;;
17648;SDS011;8943;51.110;-4.158;2023-05-10T14:13:23;12.17;;;2.20;;
17648;SDS011;8943;51.110;-4.158;2023-05-10T14:15:53;9.13;;;2.07;;
17648;SDS011;8943;51.110;-4.158;2023-05-10T14:18:22;11.87;;;2.67;;
17648;SDS011;8943;51.110;-4.158;2023-05-10T14:20:50;11.70;;;1.70;;
17648;SDS011;8943;51.110;-4.158;2023-05-10T14:23:18;12.13;;;2.03;;
17648;SDS011;8943;51.110;-4.158;2023-05-10T14:25:50;7.50;;;1.47;;
17648;SDS011;8943;51.110;-4.158;2023-05-10T14:28:18;7.73;;;1.53;;
17648;SDS011;8943;51.110;-4.158;2023-05-10T14:30:47;9.73;;;2.00;;
17648;SDS011;8943;51.110;-4.158;2023-05-10T14:33:17;6.40;;;2.03;;
17648;SDS011;8943;51.110;-4.158;2023-05-10T14:35:45;13.03;;;2.53;;
17648;SDS011;8943;51.110;-4.158;2023-05-10T14:38:13;7.93;;;1.33;;
17648;SDS011;8943;51.110;-4.158;2023-05-10T14:40:41;7.40;;;1.80;;
17648;SDS011;8943;51.110;-4.158;2023-05-10T14:43:10;10.77;;;1.93;;
17648;SDS011;8943;51.110;-4.158;2023-05-10T14:45:38;8.33;;;1.13;;
17648;SDS011;8943;51.110;-4.158;2023-05-10T14:48:06;9.27;;;1.60;;
17648;SDS011;8943;51.110;-4.158;2023-05-10T14:50:38;9.00;;;1.77;;
17648;SDS011;8943;51.110;-4.158;2023-05-10T14:53:07;8.40;;;1.90;;
17648;SDS011;8943;51.110;-4.158;2023-05-10T14:55:35;11.80;;;2.40;;
17648;SDS011;8943;51.110;-4.158;2023-05-10T14:58:03;11.80;;;2.07;;
17648;SDS011;8943;51.110;-4.158;2023-05-10T15:00:31;9.80;;;1.87;;
17648;SDS011;8943;51.110;-4.158;2023-05-10T15:03:03;6.77;;;2.03;;
17648;SDS011;8943;51.110;-4.158;2023-05-10T15:05:32;9.93;;;1.80;;
17648;SDS011;8943;51.110;-4.158;2023-05-10T15:08:02;8.33;;;2.10;;
17648;SDS011;8943;51.110;-4.158;2023-05-10T15:10:30;9.00;;;1.90;;